createdAt,value
2022-10-13T00:04:01.149Z,9.50
2022-10-13T00:08:10.151Z,9.50
2022-10-13T00:12:19.050Z,9.60
2022-10-13T00:16:28.939Z,9.60
2022-10-13T00:20:39.515Z,9.60
2022-10-13T00:24:52.961Z,9.70
2022-10-13T00:29:01.573Z,9.70
2022-10-13T00:33:11.423Z,9.70
2022-10-13T00:37:19.985Z,9.80
2022-10-13T00:41:28.665Z,9.80
2022-10-13T00:45:37.246Z,9.80
2022-10-13T00:49:46.080Z,9.80
2022-10-13T00:53:56.458Z,9.90
2022-10-13T00:58:08.262Z,9.90
2022-10-13T01:02:17.563Z,9.90
2022-10-13T01:06:26.575Z,9.90
2022-10-13T01:10:41.149Z,9.90
2022-10-13T01:14:58.552Z,10.00
2022-10-13T01:19:32.826Z,10.00
2022-10-13T01:23:46.970Z,10.00
2022-10-13T01:28:49.875Z,10.00
2022-10-13T01:33:16.694Z,10.00
2022-10-13T01:37:34.356Z,10.10
2022-10-13T01:41:52.744Z,10.10
2022-10-13T01:46:07.195Z,10.20
2022-10-13T01:50:17.969Z,10.20
2022-10-13T01:54:26.644Z,10.20
2022-10-13T01:58:38.309Z,10.30
2022-10-13T02:03:04.837Z,10.30
2022-10-13T02:07:28.259Z,10.20
2022-10-13T02:11:36.899Z,10.30
2022-10-13T02:15:48.551Z,10.30
2022-10-13T02:19:58.784Z,10.30
2022-10-13T02:24:08.717Z,10.30
2022-10-13T02:28:18.179Z,10.30
2022-10-13T02:32:26.800Z,10.40
2022-10-13T02:36:37.790Z,10.40
2022-10-13T02:40:46.357Z,10.40
2022-10-13T02:44:55.006Z,10.30
2022-10-13T02:49:03.596Z,10.30
2022-10-13T02:53:12.155Z,10.30
2022-10-13T02:57:21.070Z,10.40
2022-10-13T03:01:29.712Z,10.40
2022-10-13T03:05:38.296Z,10.40
2022-10-13T03:09:46.876Z,10.40
2022-10-13T03:13:55.533Z,10.50
2022-10-13T03:18:04.112Z,10.50
2022-10-13T03:22:14.341Z,10.50
2022-10-13T03:26:23.613Z,10.40
2022-10-13T03:30:32.251Z,10.40
2022-10-13T03:34:40.904Z,10.40
2022-10-13T03:38:49.461Z,10.50
2022-10-13T03:42:58.160Z,10.40
2022-10-13T03:47:06.850Z,10.50
2022-10-13T03:51:18.509Z,10.50
2022-10-13T03:55:27.687Z,10.50
2022-10-13T03:59:37.086Z,10.60
2022-10-13T04:03:45.830Z,10.60
2022-10-13T04:07:54.422Z,10.60
2022-10-13T04:12:02.989Z,10.50
2022-10-13T04:16:17.020Z,10.50
2022-10-13T04:20:25.602Z,10.50
2022-10-13T04:24:34.173Z,10.50
2022-10-13T04:28:42.806Z,10.40
2022-10-13T04:32:51.349Z,10.50
2022-10-13T04:36:59.916Z,10.50
2022-10-13T04:41:10.028Z,10.50
2022-10-13T04:45:19.744Z,10.50
2022-10-13T04:49:28.381Z,10.50
2022-10-13T04:53:38.451Z,10.50
2022-10-13T04:57:47.022Z,10.60
2022-10-13T05:01:55.618Z,10.60
2022-10-13T05:06:04.548Z,10.50
2022-10-13T05:10:13.278Z,10.60
2022-10-13T05:14:22.798Z,10.60
2022-10-13T05:18:31.376Z,10.60
2022-10-13T05:22:39.965Z,10.60
2022-10-13T05:26:49.013Z,10.60
2022-10-13T05:30:57.597Z,10.60
2022-10-13T05:35:06.695Z,10.60
2022-10-13T05:39:34.577Z,10.60
2022-10-13T05:43:43.813Z,10.60
2022-10-13T05:47:52.379Z,10.60
2022-10-13T05:52:03.989Z,10.60
2022-10-13T05:56:15.631Z,10.60
2022-10-13T06:00:24.888Z,10.60
2022-10-13T06:04:42.334Z,10.60
2022-10-13T06:08:52.290Z,10.60
2022-10-13T06:13:00.847Z,10.70
2022-10-13T06:17:09.517Z,10.70
2022-10-13T06:21:18.112Z,10.60
2022-10-13T06:25:26.667Z,10.60
2022-10-13T06:29:35.995Z,10.60
2022-10-13T06:33:44.827Z,10.70
2022-10-13T06:37:53.398Z,10.70
2022-10-13T06:42:02.036Z,10.70
2022-10-13T06:46:10.951Z,10.70
2022-10-13T06:50:19.527Z,10.70
2022-10-13T06:54:28.093Z,10.80
2022-10-13T06:58:38.039Z,10.80
2022-10-13T07:02:48.124Z,10.90
2022-10-13T07:06:56.728Z,11.00
2022-10-13T07:11:15.879Z,11.10
2022-10-13T07:15:25.094Z,11.10
2022-10-13T07:19:33.924Z,11.20
2022-10-13T07:23:43.119Z,11.20
2022-10-13T07:27:51.703Z,11.30
2022-10-13T07:32:00.298Z,11.40
2022-10-13T07:36:09.514Z,11.50
2022-10-13T07:40:18.359Z,11.60
2022-10-13T07:44:27.140Z,11.70
2022-10-13T07:48:36.754Z,11.90
2022-10-13T07:52:46.070Z,12.00
2022-10-13T07:56:56.240Z,12.10
2022-10-13T08:01:05.699Z,12.20
2022-10-13T08:05:14.738Z,12.20
2022-10-13T08:09:23.284Z,12.30
2022-10-13T08:13:32.770Z,12.30
2022-10-13T08:17:41.697Z,12.30
2022-10-13T08:21:59.623Z,12.30
2022-10-13T08:26:11.610Z,12.30
2022-10-13T08:30:20.899Z,12.40
2022-10-13T08:34:29.587Z,12.50
2022-10-13T08:38:38.295Z,12.60
2022-10-13T08:42:47.800Z,12.60
2022-10-13T08:47:12.190Z,12.70
2022-10-13T08:51:21.289Z,12.70
2022-10-13T08:55:50.733Z,12.80
2022-10-13T08:59:59.323Z,12.90
2022-10-13T09:04:36.382Z,13.10
2022-10-13T09:08:48.685Z,13.20
2022-10-13T09:12:58.899Z,13.40
2022-10-13T09:17:27.249Z,13.50
2022-10-13T09:21:35.906Z,13.60
2022-10-13T09:25:50.132Z,13.80
2022-10-13T09:29:58.691Z,13.90
2022-10-13T09:34:26.727Z,13.90
2022-10-13T09:38:35.366Z,14.00
2022-10-13T09:42:45.459Z,14.10
2022-10-13T09:47:00.038Z,14.20
2022-10-13T09:51:11.679Z,14.30
2022-10-13T09:55:35.388Z,14.30
2022-10-13T09:59:55.782Z,14.40
2022-10-13T10:04:07.666Z,14.50
2022-10-13T10:08:33.747Z,14.60
2022-10-13T10:12:43.853Z,14.60
2022-10-13T10:16:58.158Z,14.60
2022-10-13T10:21:33.271Z,14.60
2022-10-13T10:25:53.962Z,14.70
2022-10-13T10:30:06.838Z,14.70
2022-10-13T10:34:21.434Z,14.80
2022-10-13T10:38:42.147Z,14.90
2022-10-13T10:47:09.524Z,15.20
2022-10-13T10:51:19.561Z,15.40
2022-10-13T10:55:34.113Z,15.60
2022-10-13T10:59:57.775Z,15.70
2022-10-13T11:04:13.190Z,15.90
2022-10-13T11:08:30.556Z,16.00
2022-10-13T11:12:57.185Z,16.20
2022-10-13T11:17:11.926Z,16.20
2022-10-13T11:21:20.670Z,16.20
2022-10-13T11:25:47.045Z,16.10
2022-10-13T11:30:01.109Z,16.10
2022-10-13T11:34:13.258Z,16.00
2022-10-13T11:38:31.725Z,15.90
2022-10-13T11:42:46.238Z,15.80
2022-10-13T11:47:17.208Z,15.70
2022-10-13T11:51:43.864Z,15.70
2022-10-13T11:55:54.822Z,15.50
2022-10-13T12:00:04.787Z,15.50
2022-10-13T12:04:16.784Z,15.40
2022-10-13T12:08:26.506Z,15.30
2022-10-13T12:12:35.398Z,15.20
2022-10-13T12:21:13.189Z,15.10
2022-10-13T12:25:24.418Z,15.10
2022-10-13T12:29:37.172Z,15.10
2022-10-13T12:33:43.438Z,15.10
2022-10-13T12:37:53.570Z,15.10
2022-10-13T12:42:04.258Z,15.20
2022-10-13T12:46:12.811Z,15.20
2022-10-13T12:50:30.280Z,15.20
2022-10-13T12:54:51.014Z,15.10
2022-10-13T12:59:00.610Z,15.10
2022-10-13T13:03:12.258Z,15.00
2022-10-13T13:07:36.816Z,15.00
2022-10-13T13:11:45.474Z,14.90
2022-10-13T13:15:54.395Z,14.90
2022-10-13T13:20:04.517Z,14.90
2022-10-13T13:24:28.238Z,14.90
2022-10-13T13:28:23.297Z,14.90
2022-10-13T13:32:32.119Z,14.90
2022-10-13T13:36:41.401Z,14.90
2022-10-13T13:40:49.947Z,14.90
2022-10-13T13:44:58.600Z,14.90
2022-10-13T13:49:07.160Z,14.90
2022-10-13T13:53:15.720Z,14.90
2022-10-13T13:57:24.279Z,14.80
2022-10-13T14:01:32.941Z,14.80
2022-10-13T14:05:41.567Z,14.70
2022-10-13T14:09:50.884Z,14.70
2022-10-13T14:14:01.559Z,14.70
2022-10-13T14:18:10.119Z,14.60
2022-10-13T14:22:18.957Z,14.60
2022-10-13T14:26:27.603Z,14.70
2022-10-13T14:30:36.158Z,14.70
2022-10-13T14:34:44.878Z,14.70
2022-10-13T14:38:54.877Z,14.70
2022-10-13T14:43:03.461Z,14.60
2022-10-13T14:47:12.624Z,14.60
2022-10-13T14:51:21.666Z,14.50
2022-10-13T14:55:31.974Z,14.50
2022-10-13T14:59:43.607Z,14.50
2022-10-13T15:03:52.515Z,14.50
2022-10-13T15:08:01.081Z,14.50
2022-10-13T15:12:09.664Z,14.50
2022-10-13T15:16:22.236Z,14.50
2022-10-13T15:20:31.261Z,14.60
2022-10-13T15:24:39.821Z,14.60
2022-10-13T15:28:50.883Z,14.60
2022-10-13T15:32:59.586Z,14.60
2022-10-13T15:37:08.415Z,14.50
2022-10-13T15:41:17.364Z,14.50
2022-10-13T15:45:25.919Z,14.50
2022-10-13T15:49:40.005Z,14.50
2022-10-13T15:53:49.331Z,14.40
2022-10-13T15:57:57.991Z,14.40
2022-10-13T16:02:06.827Z,14.40
2022-10-13T16:06:15.409Z,14.40
2022-10-13T16:10:44.508Z,14.40
2022-10-13T16:14:53.071Z,14.40
2022-10-13T16:19:01.734Z,14.30
2022-10-13T16:23:10.309Z,14.30
2022-10-13T16:27:21.291Z,14.20
2022-10-13T16:31:30.620Z,14.20
2022-10-13T16:35:39.193Z,14.20
2022-10-13T16:39:51.414Z,14.20
2022-10-13T16:43:58.074Z,14.30
2022-10-13T16:48:06.728Z,14.20
2022-10-13T16:52:15.442Z,14.10
2022-10-13T16:56:25.329Z,14.10
2022-10-13T17:00:33.981Z,14.00
2022-10-13T17:04:43.148Z,14.00
2022-10-13T17:08:51.985Z,14.00
2022-10-13T17:13:00.586Z,14.00
2022-10-13T17:17:09.314Z,14.00
2022-10-13T17:21:19.868Z,14.00
2022-10-13T17:25:28.667Z,13.90
2022-10-13T17:29:37.251Z,14.00
2022-10-13T17:33:47.148Z,13.90
2022-10-13T17:37:57.814Z,13.90
2022-10-13T17:42:06.822Z,13.80
2022-10-13T17:46:36.389Z,13.80
2022-10-13T17:50:28.265Z,13.80
2022-10-13T17:54:36.849Z,13.80
2022-10-13T17:58:46.152Z,13.80
2022-10-13T18:02:55.327Z,13.80
2022-10-13T18:07:03.958Z,13.80
2022-10-13T18:11:15.754Z,13.80
2022-10-13T18:15:24.330Z,13.80
2022-10-13T18:19:37.839Z,13.80
2022-10-13T18:23:44.415Z,13.80
2022-10-13T18:27:53.118Z,13.80
2022-10-13T18:32:01.838Z,13.80
2022-10-13T18:36:21.049Z,13.80
2022-10-13T18:40:29.674Z,13.80
2022-10-13T18:44:38.238Z,13.80
2022-10-13T18:48:46.821Z,13.80
2022-10-13T18:52:55.418Z,13.80
2022-10-13T18:57:04.000Z,13.80
2022-10-13T19:01:15.256Z,13.80
2022-10-13T19:05:23.842Z,13.70
2022-10-13T19:09:32.720Z,13.70
2022-10-13T19:13:41.899Z,13.80
2022-10-13T19:17:50.597Z,13.80
2022-10-13T19:21:59.172Z,13.80
2022-10-13T19:26:15.534Z,13.80
2022-10-13T19:30:28.553Z,13.80
2022-10-13T19:34:37.956Z,13.70
2022-10-13T19:38:46.530Z,13.70
2022-10-13T19:42:56.348Z,13.70
2022-10-13T19:47:05.004Z,13.70
2022-10-13T19:51:14.313Z,13.70
2022-10-13T19:55:22.976Z,13.70
2022-10-13T19:59:31.599Z,13.70
2022-10-13T20:03:40.177Z,13.70
2022-10-13T20:07:48.736Z,13.70
2022-10-13T20:11:57.294Z,13.70
2022-10-13T20:16:10.693Z,13.70
2022-10-13T20:20:22.378Z,13.70
2022-10-13T20:24:29.545Z,13.60
2022-10-13T20:28:42.863Z,13.60
2022-10-13T20:32:50.792Z,13.60
2022-10-13T20:36:59.370Z,13.60
2022-10-13T20:41:11.189Z,13.60
2022-10-13T20:45:20.888Z,13.50
2022-10-13T20:49:29.450Z,13.50
2022-10-13T20:53:39.049Z,13.50
2022-10-13T20:58:08.473Z,13.50
2022-10-13T21:02:17.473Z,13.50
2022-10-13T21:06:27.504Z,13.50
2022-10-13T21:10:37.508Z,13.50
2022-10-13T21:14:46.077Z,13.50
2022-10-13T21:18:56.093Z,13.40
2022-10-13T21:23:06.595Z,13.40
2022-10-13T21:27:15.173Z,13.40
2022-10-13T21:31:24.697Z,13.40
2022-10-13T21:35:33.286Z,13.40
2022-10-13T21:39:42.339Z,13.40
2022-10-13T21:43:52.554Z,13.40
2022-10-13T21:48:01.122Z,13.40
2022-10-13T21:52:10.548Z,13.40
2022-10-13T21:56:19.954Z,13.40
2022-10-13T22:00:29.412Z,13.40
2022-10-13T22:04:38.114Z,13.30
2022-10-13T22:09:07.599Z,13.30
2022-10-13T22:13:16.145Z,13.30
2022-10-13T22:17:25.183Z,13.30
2022-10-13T22:21:37.351Z,13.30
2022-10-13T22:25:46.949Z,13.30
2022-10-13T22:29:55.528Z,13.20
2022-10-13T22:34:04.937Z,13.20
2022-10-13T22:38:14.869Z,13.20
2022-10-13T22:46:53.244Z,13.30
2022-10-13T22:51:05.994Z,13.30
2022-10-13T22:55:33.876Z,13.20
2022-10-13T22:59:42.440Z,13.20
2022-10-13T23:03:53.999Z,13.20
2022-10-13T23:08:02.508Z,13.20
2022-10-13T23:12:11.075Z,13.20
2022-10-13T23:16:22.750Z,13.20
2022-10-13T23:20:31.321Z,13.10
2022-10-13T23:24:39.894Z,13.20
2022-10-13T23:28:48.555Z,13.10
2022-10-13T23:32:57.212Z,13.10
2022-10-13T23:37:05.797Z,13.10
2022-10-13T23:41:16.494Z,13.10
2022-10-13T23:45:25.074Z,13.10
2022-10-13T23:49:33.641Z,13.10
2022-10-13T23:53:43.567Z,13.10
2022-10-13T23:57:52.149Z,13.10
